CPA82B YBCS-YPDN
Flight info
| Callsign | CPA82B |
|---|---|
| Flight time | 2h 18m |
| Altitude | 36000 |
| Route | CS J61 DUMAV Q91 ALLEE Q23 DN |
| Aircraft | A346/H-SDE2E3FGHIJ3J4J5M1RWXY/LB1D1 |
Departure
| Time | 2026-05-07 07:28 |
|---|---|
| Airport | Cairns International Airport (YBCS) |
Arrival
| Time | 2026-05-07 09:46 |
|---|---|
| Airport | Darwin International Airport / RAAF Darwin (YPDN) |
| Time | Latitude | Longitude | Altitude | Speed | Heading |
|---|---|---|---|---|---|
| 2026-05-07 07:18 | -16.87276 | 145.75332 | 4 ft | 0 kts | 157° |
| 2026-05-07 07:21 | -16.87270 | 145.75330 | 1 ft | 4 kts | 155° |
| 2026-05-07 07:21 | -16.87247 | 145.75316 | 5 ft | 4 kts | 143° |
| 2026-05-07 07:21 | -16.87229 | 145.75303 | 4 ft | 4 kts | 165° |
| 2026-05-07 07:22 | -16.87217 | 145.75304 | 4 ft | 4 kts | 195° |
| 2026-05-07 07:22 | -16.87198 | 145.75313 | 6 ft | 4 kts | 227° |
| 2026-05-07 07:22 | -16.87188 | 145.75334 | 6 ft | 4 kts | 254° |
| 2026-05-07 07:22 | -16.87182 | 145.75353 | 6 ft | 0 kts | 247° |
| 2026-05-07 07:24 | -16.87186 | 145.75344 | 7 ft | 7 kts | 247° |
| 2026-05-07 07:25 | -16.87256 | 145.75179 | 8 ft | 16 kts | 245° |
| 2026-05-07 07:25 | -16.87308 | 145.75056 | 6 ft | 20 kts | 250° |
| 2026-05-07 07:25 | -16.87294 | 145.74905 | 6 ft | 23 kts | 301° |
| 2026-05-07 07:26 | -16.87156 | 145.74812 | 6 ft | 25 kts | 338° |
| 2026-05-07 07:26 | -16.87055 | 145.74715 | 4 ft | 19 kts | 270° |
| 2026-05-07 07:26 | -16.87104 | 145.74614 | 4 ft | 13 kts | 205° |
| 2026-05-07 07:26 | -16.87181 | 145.74625 | 5 ft | 0 kts | 158° |
| 2026-05-07 07:27 | -16.87184 | 145.74627 | 1 ft | 1 kts | 157° |
| 2026-05-07 07:27 | -16.87202 | 145.74634 | 4 ft | 7 kts | 157° |
| 2026-05-07 07:27 | -16.87466 | 145.74753 | 9 ft | 76 kts | 156° |
| 2026-05-07 07:27 | -16.88146 | 145.75063 | 28 ft | 137 kts | 156° |
| 2026-05-07 07:28 | -16.89171 | 145.75520 | 194 ft | 173 kts | 155° |
| 2026-05-07 07:28 | -16.90296 | 145.75998 | 845 ft | 172 kts | 156° |
| 2026-05-07 07:28 | -16.91387 | 145.76497 | 1592 ft | 170 kts | 157° |
| 2026-05-07 07:28 | -16.92579 | 145.76620 | 2198 ft | 184 kts | 189° |
| 2026-05-07 07:29 | -16.93752 | 145.75945 | 2665 ft | 207 kts | 222° |
| 2026-05-07 07:29 | -16.94373 | 145.74520 | 3079 ft | 232 kts | 263° |
| 2026-05-07 07:29 | -16.94055 | 145.72786 | 3507 ft | 255 kts | 287° |
| 2026-05-07 07:29 | -16.93390 | 145.70986 | 3898 ft | 275 kts | 291° |
| 2026-05-07 07:30 | -16.92624 | 145.69095 | 4548 ft | 285 kts | 291° |
| 2026-05-07 07:30 | -16.91860 | 145.67168 | 5273 ft | 289 kts | 291° |
| 2026-05-07 07:30 | -16.91104 | 145.65216 | 6025 ft | 291 kts | 292° |
| 2026-05-07 07:30 | -16.90355 | 145.63255 | 6770 ft | 294 kts | 292° |
| 2026-05-07 07:31 | -16.89593 | 145.61255 | 7544 ft | 296 kts | 292° |
| 2026-05-07 07:31 | -16.88839 | 145.59264 | 8426 ft | 293 kts | 291° |
| 2026-05-07 07:31 | -16.88099 | 145.57302 | 9347 ft | 287 kts | 291° |
| 2026-05-07 07:31 | -16.87375 | 145.55372 | 10276 ft | 282 kts | 291° |
| 2026-05-07 07:32 | -16.86656 | 145.53433 | 10793 ft | 293 kts | 291° |
| 2026-05-07 07:32 | -16.85896 | 145.51385 | 11094 ft | 311 kts | 291° |
| 2026-05-07 07:32 | -16.85099 | 145.49249 | 11382 ft | 328 kts | 291° |
| 2026-05-07 07:32 | -16.84244 | 145.46962 | 11684 ft | 346 kts | 292° |
| 2026-05-07 07:33 | -16.83345 | 145.44558 | 11977 ft | 363 kts | 292° |
| 2026-05-07 07:33 | -16.82400 | 145.42029 | 12310 ft | 378 kts | 292° |
| 2026-05-07 07:33 | -16.81434 | 145.39446 | 12943 ft | 383 kts | 292° |
| 2026-05-07 07:33 | -16.80461 | 145.36840 | 13703 ft | 386 kts | 292° |
| 2026-05-07 07:34 | -16.79482 | 145.34223 | 14364 ft | 389 kts | 292° |
| 2026-05-07 07:34 | -16.78491 | 145.31580 | 15033 ft | 392 kts | 292° |
| 2026-05-07 07:34 | -16.77493 | 145.28919 | 15710 ft | 394 kts | 292° |
| 2026-05-07 07:34 | -16.76490 | 145.26247 | 16377 ft | 397 kts | 292° |
| 2026-05-07 07:35 | -16.75473 | 145.23535 | 17001 ft | 401 kts | 292° |
| 2026-05-07 07:35 | -16.74451 | 145.20807 | 17656 ft | 404 kts | 293° |
| 2026-05-07 07:35 | -16.73424 | 145.18069 | 18309 ft | 407 kts | 292° |
| 2026-05-07 07:35 | -16.72390 | 145.15304 | 18880 ft | 409 kts | 292° |
| 2026-05-07 07:36 | -16.71347 | 145.12527 | 19419 ft | 412 kts | 292° |
| 2026-05-07 07:36 | -16.70310 | 145.09765 | 19948 ft | 415 kts | 292° |
| 2026-05-07 07:36 | -16.69248 | 145.06938 | 20485 ft | 418 kts | 292° |
| 2026-05-07 07:36 | -16.68182 | 145.04103 | 21016 ft | 421 kts | 292° |
| 2026-05-07 07:37 | -16.67104 | 145.01239 | 21544 ft | 425 kts | 292° |
| 2026-05-07 07:37 | -16.66019 | 144.98358 | 22069 ft | 427 kts | 292° |
| 2026-05-07 07:37 | -16.64925 | 144.95455 | 22601 ft | 430 kts | 292° |
| 2026-05-07 07:37 | -16.63834 | 144.92525 | 23111 ft | 433 kts | 291° |
| 2026-05-07 07:38 | -16.62860 | 144.89540 | 23601 ft | 436 kts | 288° |
| 2026-05-07 07:38 | -16.62024 | 144.86516 | 23999 ft | 439 kts | 286° |
| 2026-05-07 07:38 | -16.61211 | 144.83439 | 24447 ft | 441 kts | 286° |
| 2026-05-07 07:38 | -16.60396 | 144.80345 | 24918 ft | 442 kts | 286° |
| 2026-05-07 07:39 | -16.59581 | 144.77252 | 25383 ft | 443 kts | 286° |
| 2026-05-07 07:39 | -16.58760 | 144.74138 | 25844 ft | 445 kts | 286° |
| 2026-05-07 07:39 | -16.57936 | 144.71019 | 26283 ft | 446 kts | 286° |
| 2026-05-07 07:39 | -16.57109 | 144.67893 | 26747 ft | 447 kts | 287° |
| 2026-05-07 07:40 | -16.56280 | 144.64761 | 27184 ft | 449 kts | 287° |
| 2026-05-07 07:40 | -16.55445 | 144.61611 | 27613 ft | 450 kts | 287° |
| 2026-05-07 07:40 | -16.54606 | 144.58447 | 28049 ft | 452 kts | 287° |
| 2026-05-07 07:40 | -16.53764 | 144.55276 | 28482 ft | 454 kts | 287° |
| 2026-05-07 07:41 | -16.52932 | 144.52139 | 28976 ft | 453 kts | 287° |
| 2026-05-07 07:41 | -16.52094 | 144.48986 | 29643 ft | 449 kts | 287° |
| 2026-05-07 07:41 | -16.51264 | 144.45859 | 30282 ft | 445 kts | 287° |
| 2026-05-07 07:41 | -16.50438 | 144.42758 | 30821 ft | 442 kts | 287° |
| 2026-05-07 07:42 | -16.49616 | 144.39676 | 31327 ft | 440 kts | 287° |
| 2026-05-07 07:42 | -16.48796 | 144.36605 | 31800 ft | 438 kts | 287° |
| 2026-05-07 07:42 | -16.47979 | 144.33546 | 32276 ft | 437 kts | 286° |
| 2026-05-07 07:42 | -16.47164 | 144.30491 | 32768 ft | 436 kts | 286° |
| 2026-05-07 07:43 | -16.46353 | 144.27458 | 33261 ft | 434 kts | 286° |
| 2026-05-07 07:43 | -16.45546 | 144.24438 | 33754 ft | 432 kts | 286° |
| 2026-05-07 07:43 | -16.44739 | 144.21419 | 34202 ft | 431 kts | 286° |
| 2026-05-07 07:43 | -16.43933 | 144.18403 | 34593 ft | 430 kts | 286° |
| 2026-05-07 07:44 | -16.43129 | 144.15398 | 34944 ft | 431 kts | 286° |
| 2026-05-07 07:44 | -16.42321 | 144.12382 | 35278 ft | 432 kts | 286° |
| 2026-05-07 07:44 | -16.41521 | 144.09398 | 35607 ft | 432 kts | 286° |
| 2026-05-07 07:44 | -16.40712 | 144.06380 | 35911 ft | 433 kts | 286° |
| 2026-05-07 07:45 | -16.39899 | 144.03348 | 35975 ft | 434 kts | 286° |
| 2026-05-07 07:45 | -16.38268 | 143.97273 | 35988 ft | 434 kts | 286° |
| 2026-05-07 07:46 | -16.36637 | 143.91210 | 35984 ft | 434 kts | 286° |
| 2026-05-07 07:46 | -16.35014 | 143.85182 | 35987 ft | 434 kts | 286° |
| 2026-05-07 07:47 | -16.33375 | 143.79103 | 35988 ft | 434 kts | 286° |
| 2026-05-07 07:47 | -16.31739 | 143.73046 | 35984 ft | 434 kts | 286° |
| 2026-05-07 07:48 | -16.30102 | 143.66986 | 35998 ft | 434 kts | 286° |
| 2026-05-07 07:48 | -16.28470 | 143.60958 | 35987 ft | 434 kts | 286° |
| 2026-05-07 07:49 | -16.26826 | 143.54894 | 35995 ft | 434 kts | 286° |
| 2026-05-07 07:49 | -16.25457 | 143.49848 | 35985 ft | 434 kts | 286° |
| 2026-05-07 07:50 | -16.23811 | 143.43790 | 35985 ft | 434 kts | 286° |
| 2026-05-07 07:50 | -16.22160 | 143.37723 | 35994 ft | 434 kts | 286° |
| 2026-05-07 07:51 | -16.20521 | 143.31710 | 35981 ft | 434 kts | 286° |
| 2026-05-07 07:51 | -16.18870 | 143.25659 | 35982 ft | 434 kts | 286° |
| 2026-05-07 07:52 | -16.17222 | 143.19607 | 35990 ft | 434 kts | 286° |
| 2026-05-07 07:52 | -16.15571 | 143.13548 | 35980 ft | 434 kts | 286° |
| 2026-05-07 07:53 | -16.13918 | 143.07494 | 35990 ft | 434 kts | 286° |
| 2026-05-07 07:53 | -16.12260 | 143.01436 | 35975 ft | 434 kts | 286° |
| 2026-05-07 07:54 | -16.10612 | 142.95425 | 35989 ft | 434 kts | 286° |
| 2026-05-07 07:54 | -16.08950 | 142.89370 | 35976 ft | 434 kts | 286° |
| 2026-05-07 07:55 | -16.07288 | 142.83321 | 35981 ft | 434 kts | 287° |
| 2026-05-07 07:55 | -16.05623 | 142.77271 | 35976 ft | 434 kts | 287° |
| 2026-05-07 07:56 | -16.03957 | 142.71226 | 35978 ft | 434 kts | 287° |
| 2026-05-07 07:56 | -16.02289 | 142.65180 | 35985 ft | 434 kts | 287° |
| 2026-05-07 07:57 | -16.00619 | 142.59132 | 35973 ft | 434 kts | 287° |
| 2026-05-07 07:57 | -15.98958 | 142.53124 | 35970 ft | 434 kts | 287° |
| 2026-05-07 07:58 | -15.97283 | 142.47073 | 35981 ft | 434 kts | 287° |
| 2026-05-07 07:58 | -15.95607 | 142.41028 | 35971 ft | 434 kts | 287° |
| 2026-05-07 07:59 | -15.93930 | 142.34983 | 35971 ft | 434 kts | 287° |
| 2026-05-07 07:59 | -15.92249 | 142.28935 | 35983 ft | 434 kts | 287° |
| 2026-05-07 08:00 | -15.90580 | 142.22934 | 35970 ft | 434 kts | 287° |
| 2026-05-07 08:00 | -15.88897 | 142.16892 | 35974 ft | 434 kts | 287° |
| 2026-05-07 08:01 | -15.87212 | 142.10851 | 35968 ft | 434 kts | 287° |
| 2026-05-07 08:01 | -15.85523 | 142.04806 | 35968 ft | 434 kts | 287° |
| 2026-05-07 08:02 | -15.83828 | 141.98751 | 35980 ft | 435 kts | 287° |
| 2026-05-07 08:02 | -15.82137 | 141.92710 | 35956 ft | 435 kts | 287° |
| 2026-05-07 08:03 | -15.80453 | 141.86686 | 35967 ft | 437 kts | 287° |
| 2026-05-07 08:03 | -15.78753 | 141.80619 | 35964 ft | 437 kts | 287° |
| 2026-05-07 08:04 | -15.77336 | 141.75576 | 35972 ft | 437 kts | 287° |
| 2026-05-07 08:04 | -15.75158 | 141.67834 | 35964 ft | 437 kts | 287° |
| 2026-05-07 08:05 | -15.73456 | 141.61795 | 35967 ft | 437 kts | 287° |
| 2026-05-07 08:05 | -15.71741 | 141.55719 | 35970 ft | 437 kts | 287° |
| 2026-05-07 08:06 | -15.70315 | 141.50671 | 35970 ft | 437 kts | 287° |
| 2026-05-07 08:06 | -15.68320 | 141.43618 | 35970 ft | 437 kts | 287° |
| 2026-05-07 08:07 | -15.66890 | 141.38568 | 35973 ft | 437 kts | 287° |
| 2026-05-07 08:07 | -15.65173 | 141.32511 | 35974 ft | 437 kts | 287° |
| 2026-05-07 08:08 | -15.63448 | 141.26433 | 35973 ft | 437 kts | 287° |
| 2026-05-07 08:08 | -15.61725 | 141.20369 | 35974 ft | 437 kts | 287° |
| 2026-05-07 08:09 | -15.60004 | 141.14316 | 35969 ft | 437 kts | 287° |
| 2026-05-07 08:09 | -15.58277 | 141.08254 | 35967 ft | 438 kts | 287° |
| 2026-05-07 08:10 | -15.56557 | 141.02220 | 35974 ft | 438 kts | 287° |
| 2026-05-07 08:10 | -15.54823 | 140.96143 | 35970 ft | 438 kts | 287° |
| 2026-05-07 08:11 | -15.53086 | 140.90065 | 35977 ft | 438 kts | 287° |
| 2026-05-07 08:11 | -15.51348 | 140.83987 | 35978 ft | 439 kts | 287° |
| 2026-05-07 08:12 | -15.49618 | 140.77946 | 35978 ft | 439 kts | 287° |
| 2026-05-07 08:12 | -15.47874 | 140.71865 | 35976 ft | 439 kts | 287° |
| 2026-05-07 08:13 | -15.46130 | 140.65788 | 35974 ft | 439 kts | 287° |
| 2026-05-07 08:13 | -15.44394 | 140.59747 | 35972 ft | 439 kts | 287° |
| 2026-05-07 08:14 | -15.42644 | 140.53661 | 35975 ft | 439 kts | 287° |
| 2026-05-07 08:14 | -15.40893 | 140.47581 | 35967 ft | 439 kts | 287° |
| 2026-05-07 08:15 | -15.39139 | 140.41501 | 35973 ft | 439 kts | 287° |
| 2026-05-07 08:15 | -15.37396 | 140.35460 | 35975 ft | 439 kts | 287° |
| 2026-05-07 08:16 | -15.35639 | 140.29379 | 35973 ft | 439 kts | 287° |
| 2026-05-07 08:16 | -15.33881 | 140.23302 | 35971 ft | 439 kts | 287° |
| 2026-05-07 08:17 | -15.32121 | 140.17224 | 35973 ft | 439 kts | 287° |
| 2026-05-07 08:17 | -15.30359 | 140.11148 | 35970 ft | 439 kts | 287° |
| 2026-05-07 08:18 | -15.28600 | 140.05084 | 35972 ft | 439 kts | 287° |
| 2026-05-07 08:18 | -15.26850 | 139.99061 | 35969 ft | 439 kts | 287° |
| 2026-05-07 08:19 | -15.25085 | 139.92995 | 35972 ft | 439 kts | 287° |
| 2026-05-07 08:19 | -15.23320 | 139.86932 | 35969 ft | 439 kts | 287° |
| 2026-05-07 08:20 | -15.21565 | 139.80911 | 35974 ft | 439 kts | 287° |
| 2026-05-07 08:20 | -15.19797 | 139.74854 | 35973 ft | 439 kts | 287° |
| 2026-05-07 08:21 | -15.18028 | 139.68797 | 35974 ft | 438 kts | 287° |
| 2026-05-07 08:21 | -15.16259 | 139.62750 | 35971 ft | 438 kts | 287° |
| 2026-05-07 08:22 | -15.14496 | 139.56728 | 35974 ft | 438 kts | 287° |
| 2026-05-07 08:22 | -15.12728 | 139.50694 | 35970 ft | 438 kts | 287° |
| 2026-05-07 08:23 | -15.10965 | 139.44685 | 35972 ft | 438 kts | 287° |
| 2026-05-07 08:23 | -15.09190 | 139.38641 | 35973 ft | 438 kts | 287° |
| 2026-05-07 08:24 | -15.07412 | 139.32594 | 35973 ft | 438 kts | 287° |
| 2026-05-07 08:24 | -15.05635 | 139.26561 | 35972 ft | 438 kts | 287° |
| 2026-05-07 08:25 | -15.03855 | 139.20521 | 35972 ft | 438 kts | 287° |
| 2026-05-07 08:25 | -15.02083 | 139.14514 | 35975 ft | 438 kts | 287° |
| 2026-05-07 08:26 | -14.99413 | 139.05478 | 35973 ft | 438 kts | 287° |
| 2026-05-07 08:26 | -14.97627 | 138.99446 | 35973 ft | 439 kts | 287° |
| 2026-05-07 08:27 | -14.95843 | 138.93430 | 35973 ft | 439 kts | 287° |
| 2026-05-07 08:27 | -14.94050 | 138.87384 | 35976 ft | 439 kts | 287° |
| 2026-05-07 08:28 | -14.92263 | 138.81339 | 35971 ft | 439 kts | 287° |
| 2026-05-07 08:28 | -14.90471 | 138.75292 | 35974 ft | 439 kts | 287° |
| 2026-05-07 08:29 | -14.88673 | 138.69242 | 35977 ft | 439 kts | 287° |
| 2026-05-07 08:29 | -14.86884 | 138.63229 | 35971 ft | 439 kts | 287° |
| 2026-05-07 08:30 | -14.85084 | 138.57184 | 35976 ft | 440 kts | 287° |
| 2026-05-07 08:30 | -14.83284 | 138.51152 | 35979 ft | 440 kts | 287° |
| 2026-05-07 08:31 | -14.81478 | 138.45104 | 35979 ft | 440 kts | 287° |
| 2026-05-07 08:31 | -14.79671 | 138.39060 | 35969 ft | 441 kts | 287° |
| 2026-05-07 08:32 | -14.77867 | 138.33032 | 35978 ft | 442 kts | 287° |
| 2026-05-07 08:32 | -14.76045 | 138.26950 | 35979 ft | 442 kts | 287° |
| 2026-05-07 08:33 | -14.74232 | 138.20900 | 35978 ft | 442 kts | 287° |
| 2026-05-07 08:33 | -14.72407 | 138.14819 | 35978 ft | 442 kts | 287° |
| 2026-05-07 08:34 | -14.70581 | 138.08744 | 35977 ft | 442 kts | 287° |
| 2026-05-07 08:34 | -14.68746 | 138.02644 | 35978 ft | 442 kts | 287° |
| 2026-05-07 08:35 | -14.66919 | 137.96575 | 35980 ft | 442 kts | 287° |
| 2026-05-07 08:35 | -14.65089 | 137.90501 | 35979 ft | 442 kts | 288° |
| 2026-05-07 08:36 | -14.63260 | 137.84441 | 35981 ft | 442 kts | 288° |
| 2026-05-07 08:36 | -14.61435 | 137.78399 | 35987 ft | 442 kts | 288° |
| 2026-05-07 08:37 | -14.59597 | 137.72321 | 35980 ft | 442 kts | 288° |
| 2026-05-07 08:37 | -14.57762 | 137.66257 | 35981 ft | 442 kts | 288° |
| 2026-05-07 08:38 | -14.55928 | 137.60205 | 35981 ft | 442 kts | 288° |
| 2026-05-07 08:38 | -14.54100 | 137.54180 | 35983 ft | 442 kts | 288° |
| 2026-05-07 08:39 | -14.52261 | 137.48120 | 35983 ft | 442 kts | 288° |
| 2026-05-07 08:39 | -14.50422 | 137.42069 | 35984 ft | 442 kts | 288° |
| 2026-05-07 08:40 | -14.48577 | 137.36004 | 35987 ft | 441 kts | 288° |
| 2026-05-07 08:40 | -14.46736 | 137.29956 | 35987 ft | 441 kts | 288° |
| 2026-05-07 08:41 | -14.44895 | 137.23917 | 35984 ft | 441 kts | 288° |
| 2026-05-07 08:41 | -14.43064 | 137.17915 | 35987 ft | 441 kts | 288° |
| 2026-05-07 08:42 | -14.41220 | 137.11877 | 35985 ft | 441 kts | 288° |
| 2026-05-07 08:42 | -14.39373 | 137.05835 | 35985 ft | 441 kts | 288° |
| 2026-05-07 08:43 | -14.37524 | 136.99794 | 35988 ft | 441 kts | 288° |
| 2026-05-07 08:43 | -14.35673 | 136.93749 | 35992 ft | 441 kts | 288° |
| 2026-05-07 08:44 | -14.33825 | 136.87723 | 35989 ft | 440 kts | 288° |
| 2026-05-07 08:44 | -14.31972 | 136.81687 | 35986 ft | 440 kts | 288° |
| 2026-05-07 08:45 | -14.30121 | 136.75662 | 35988 ft | 440 kts | 288° |
| 2026-05-07 08:45 | -14.28277 | 136.69665 | 35990 ft | 440 kts | 288° |
| 2026-05-07 08:46 | -14.26420 | 136.63634 | 35989 ft | 440 kts | 288° |
| 2026-05-07 08:46 | -14.24559 | 136.57596 | 35990 ft | 440 kts | 288° |
| 2026-05-07 08:47 | -14.22703 | 136.51576 | 35991 ft | 440 kts | 288° |
| 2026-05-07 08:47 | -14.20842 | 136.45548 | 35990 ft | 440 kts | 288° |
| 2026-05-07 08:48 | -14.18993 | 136.39564 | 35988 ft | 440 kts | 288° |
| 2026-05-07 08:48 | -14.17118 | 136.33506 | 35991 ft | 440 kts | 288° |
| 2026-05-07 08:49 | -14.15261 | 136.27509 | 35989 ft | 440 kts | 288° |
| 2026-05-07 08:49 | -14.13394 | 136.21486 | 35988 ft | 440 kts | 288° |
| 2026-05-07 08:50 | -14.11540 | 136.15510 | 35986 ft | 440 kts | 288° |
| 2026-05-07 08:50 | -14.09665 | 136.09474 | 35992 ft | 441 kts | 288° |
| 2026-05-07 08:51 | -14.07790 | 136.03442 | 35990 ft | 441 kts | 288° |
| 2026-05-07 08:51 | -14.05917 | 135.97422 | 35988 ft | 441 kts | 288° |
| 2026-05-07 08:52 | -14.04038 | 135.91391 | 35991 ft | 441 kts | 288° |
| 2026-05-07 08:52 | -14.02167 | 135.85395 | 35993 ft | 441 kts | 288° |
| 2026-05-07 08:53 | -14.00285 | 135.79367 | 35995 ft | 441 kts | 288° |
| 2026-05-07 08:53 | -13.98404 | 135.73350 | 36000 ft | 441 kts | 288° |
| 2026-05-07 08:54 | -13.96517 | 135.67324 | 35998 ft | 441 kts | 288° |
| 2026-05-07 08:54 | -13.94952 | 135.62304 | 35997 ft | 441 kts | 287° |
| 2026-05-07 08:55 | -13.93215 | 135.55147 | 35989 ft | 442 kts | 282° |
| 2026-05-07 08:55 | -13.92165 | 135.49951 | 35991 ft | 442 kts | 282° |
| 2026-05-07 08:56 | -13.90912 | 135.43735 | 35993 ft | 442 kts | 282° |
| 2026-05-07 08:56 | -13.89667 | 135.37566 | 35989 ft | 442 kts | 282° |
| 2026-05-07 08:57 | -13.88409 | 135.31340 | 35992 ft | 443 kts | 282° |
| 2026-05-07 08:57 | -13.87151 | 135.25124 | 35993 ft | 443 kts | 282° |
| 2026-05-07 08:58 | -13.85893 | 135.18910 | 35993 ft | 443 kts | 282° |
| 2026-05-07 08:58 | -13.84634 | 135.12705 | 35997 ft | 443 kts | 282° |
| 2026-05-07 08:59 | -13.83379 | 135.06527 | 35996 ft | 442 kts | 282° |
| 2026-05-07 08:59 | -13.82115 | 135.00315 | 35998 ft | 442 kts | 282° |
| 2026-05-07 09:00 | -13.80853 | 134.94120 | 35997 ft | 441 kts | 282° |
| 2026-05-07 09:00 | -13.79591 | 134.87930 | 35975 ft | 441 kts | 282° |
| 2026-05-07 09:01 | -13.78321 | 134.81713 | 35988 ft | 443 kts | 282° |
| 2026-05-07 09:01 | -13.77058 | 134.75535 | 35993 ft | 443 kts | 282° |
| 2026-05-07 09:02 | -13.75784 | 134.69316 | 35992 ft | 443 kts | 282° |
| 2026-05-07 09:02 | -13.74507 | 134.63091 | 35991 ft | 443 kts | 282° |
| 2026-05-07 09:03 | -13.73240 | 134.56921 | 35991 ft | 442 kts | 282° |
| 2026-05-07 09:03 | -13.71966 | 134.50729 | 35991 ft | 442 kts | 282° |
| 2026-05-07 09:04 | -13.70692 | 134.44543 | 35992 ft | 442 kts | 282° |
| 2026-05-07 09:04 | -13.69413 | 134.38350 | 35994 ft | 441 kts | 282° |
| 2026-05-07 09:05 | -13.68135 | 134.32169 | 35994 ft | 441 kts | 282° |
| 2026-05-07 09:05 | -13.66848 | 134.25977 | 35992 ft | 442 kts | 283° |
| 2026-05-07 09:06 | -13.65540 | 134.19794 | 35995 ft | 442 kts | 283° |
| 2026-05-07 09:06 | -13.64236 | 134.13642 | 35992 ft | 442 kts | 283° |
| 2026-05-07 09:07 | -13.62920 | 134.07450 | 35992 ft | 442 kts | 283° |
| 2026-05-07 09:07 | -13.61606 | 134.01272 | 36003 ft | 442 kts | 283° |
| 2026-05-07 09:08 | -13.60292 | 133.95101 | 36002 ft | 441 kts | 283° |
| 2026-05-07 09:08 | -13.58978 | 133.88937 | 36000 ft | 441 kts | 283° |
| 2026-05-07 09:09 | -13.57667 | 133.82801 | 36011 ft | 441 kts | 283° |
| 2026-05-07 09:09 | -13.56349 | 133.76631 | 36002 ft | 441 kts | 283° |
| 2026-05-07 09:10 | -13.55026 | 133.70455 | 36001 ft | 441 kts | 283° |
| 2026-05-07 09:10 | -13.53703 | 133.64285 | 35992 ft | 442 kts | 283° |
| 2026-05-07 09:11 | -13.52381 | 133.58124 | 35998 ft | 442 kts | 283° |
| 2026-05-07 09:11 | -13.51053 | 133.51944 | 36001 ft | 442 kts | 283° |
| 2026-05-07 09:12 | -13.49724 | 133.45770 | 36000 ft | 442 kts | 283° |
| 2026-05-07 09:12 | -13.48402 | 133.39640 | 35999 ft | 442 kts | 283° |
| 2026-05-07 09:13 | -13.47072 | 133.33483 | 35998 ft | 441 kts | 283° |
| 2026-05-07 09:13 | -13.45746 | 133.27306 | 35997 ft | 442 kts | 282° |
| 2026-05-07 09:14 | -13.44798 | 133.21065 | 36005 ft | 442 kts | 277° |
| 2026-05-07 09:14 | -13.44199 | 133.14773 | 35995 ft | 441 kts | 277° |
| 2026-05-07 09:15 | -13.43613 | 133.08531 | 35990 ft | 441 kts | 277° |
| 2026-05-07 09:15 | -13.43021 | 133.02231 | 35990 ft | 441 kts | 277° |
| 2026-05-07 09:16 | -13.42431 | 132.95959 | 35988 ft | 441 kts | 277° |
| 2026-05-07 09:16 | -13.41837 | 132.89677 | 35988 ft | 441 kts | 277° |
| 2026-05-07 09:17 | -13.41248 | 132.83449 | 35984 ft | 440 kts | 277° |
| 2026-05-07 09:17 | -13.40651 | 132.77168 | 35978 ft | 440 kts | 277° |
| 2026-05-07 09:18 | -13.40054 | 132.70890 | 35979 ft | 440 kts | 277° |
| 2026-05-07 09:18 | -13.39455 | 132.64617 | 35980 ft | 440 kts | 277° |
| 2026-05-07 09:19 | -13.38857 | 132.58372 | 35979 ft | 440 kts | 277° |
| 2026-05-07 09:19 | -13.38258 | 132.52126 | 35978 ft | 440 kts | 277° |
| 2026-05-07 09:20 | -13.37656 | 132.45862 | 35969 ft | 440 kts | 277° |
| 2026-05-07 09:20 | -13.37052 | 132.39603 | 35980 ft | 440 kts | 277° |
| 2026-05-07 09:21 | -13.36447 | 132.33347 | 35849 ft | 440 kts | 277° |
| 2026-05-07 09:21 | -13.36144 | 132.30217 | 35607 ft | 438 kts | 277° |
| 2026-05-07 09:21 | -13.35843 | 132.27103 | 35318 ft | 436 kts | 277° |
| 2026-05-07 09:22 | -13.35543 | 132.24004 | 34965 ft | 434 kts | 277° |
| 2026-05-07 09:22 | -13.35243 | 132.20920 | 34522 ft | 433 kts | 277° |
| 2026-05-07 09:22 | -13.34943 | 132.17837 | 33997 ft | 433 kts | 277° |
| 2026-05-07 09:22 | -13.34640 | 132.14753 | 33372 ft | 433 kts | 277° |
| 2026-05-07 09:23 | -13.34339 | 132.11714 | 32727 ft | 434 kts | 277° |
| 2026-05-07 09:23 | -13.34032 | 132.08617 | 32031 ft | 435 kts | 277° |
| 2026-05-07 09:23 | -13.33726 | 132.05521 | 31355 ft | 437 kts | 276° |
| 2026-05-07 09:23 | -13.33419 | 132.02400 | 30673 ft | 439 kts | 276° |
| 2026-05-07 09:24 | -13.33112 | 131.99278 | 29930 ft | 441 kts | 275° |
| 2026-05-07 09:24 | -13.32766 | 131.96121 | 28936 ft | 446 kts | 279° |
| 2026-05-07 09:24 | -13.32036 | 131.93021 | 28149 ft | 447 kts | 287° |
| 2026-05-07 09:24 | -13.30876 | 131.90062 | 27573 ft | 445 kts | 295° |
| 2026-05-07 09:25 | -13.29344 | 131.87325 | 27101 ft | 442 kts | 302° |
| 2026-05-07 09:25 | -13.27605 | 131.84733 | 26636 ft | 438 kts | 303° |
| 2026-05-07 09:25 | -13.25855 | 131.82187 | 26168 ft | 434 kts | 304° |
| 2026-05-07 09:25 | -13.24109 | 131.79661 | 25604 ft | 432 kts | 304° |
| 2026-05-07 09:26 | -13.22396 | 131.77185 | 25113 ft | 429 kts | 304° |
| 2026-05-07 09:26 | -13.20668 | 131.74689 | 24548 ft | 427 kts | 304° |
| 2026-05-07 09:26 | -13.18953 | 131.72211 | 24044 ft | 423 kts | 305° |
| 2026-05-07 09:26 | -13.17249 | 131.69747 | 23562 ft | 420 kts | 305° |
| 2026-05-07 09:27 | -13.15559 | 131.67307 | 23000 ft | 417 kts | 305° |
| 2026-05-07 09:27 | -13.13880 | 131.64887 | 22476 ft | 413 kts | 305° |
| 2026-05-07 09:27 | -13.10572 | 131.60117 | 21520 ft | 405 kts | 305° |
| 2026-05-07 09:28 | -13.08943 | 131.57766 | 21056 ft | 402 kts | 305° |
| 2026-05-07 09:28 | -13.07351 | 131.55466 | 20605 ft | 398 kts | 305° |
| 2026-05-07 09:28 | -13.05747 | 131.53151 | 20154 ft | 395 kts | 305° |
| 2026-05-07 09:28 | -13.04046 | 131.50938 | 19701 ft | 393 kts | 310° |
| 2026-05-07 09:29 | -13.02129 | 131.48936 | 19247 ft | 392 kts | 316° |
| 2026-05-07 09:29 | -13.00024 | 131.47167 | 18795 ft | 391 kts | 322° |
| 2026-05-07 09:29 | -12.97803 | 131.45574 | 18350 ft | 390 kts | 323° |
| 2026-05-07 09:29 | -12.95558 | 131.44012 | 17853 ft | 388 kts | 324° |
| 2026-05-07 09:30 | -12.93352 | 131.42483 | 17355 ft | 386 kts | 324° |
| 2026-05-07 09:30 | -12.91128 | 131.40940 | 16859 ft | 385 kts | 324° |
| 2026-05-07 09:30 | -12.88917 | 131.39405 | 16390 ft | 383 kts | 324° |
| 2026-05-07 09:30 | -12.86716 | 131.37876 | 15926 ft | 381 kts | 324° |
| 2026-05-07 09:31 | -12.84527 | 131.36354 | 15474 ft | 379 kts | 324° |
| 2026-05-07 09:31 | -12.82348 | 131.34840 | 15023 ft | 377 kts | 324° |
| 2026-05-07 09:31 | -12.80175 | 131.33331 | 14579 ft | 376 kts | 324° |
| 2026-05-07 09:31 | -12.78011 | 131.31828 | 14136 ft | 375 kts | 324° |
| 2026-05-07 09:32 | -12.75852 | 131.30327 | 13687 ft | 374 kts | 324° |
| 2026-05-07 09:32 | -12.73699 | 131.28832 | 13185 ft | 372 kts | 324° |
| 2026-05-07 09:32 | -12.71563 | 131.27350 | 12718 ft | 370 kts | 324° |
| 2026-05-07 09:32 | -12.69442 | 131.25874 | 12296 ft | 366 kts | 324° |
| 2026-05-07 09:33 | -12.67344 | 131.24412 | 11873 ft | 363 kts | 324° |
| 2026-05-07 09:33 | -12.65279 | 131.22982 | 11406 ft | 362 kts | 325° |
| 2026-05-07 09:33 | -12.63188 | 131.21524 | 10964 ft | 359 kts | 323° |
| 2026-05-07 09:33 | -12.61412 | 131.19813 | 10794 ft | 345 kts | 308° |
| 2026-05-07 09:34 | -12.60181 | 131.17757 | 10630 ft | 332 kts | 293° |
| 2026-05-07 09:34 | -12.59391 | 131.15580 | 10487 ft | 320 kts | 288° |
| 2026-05-07 09:34 | -12.58700 | 131.13441 | 10295 ft | 312 kts | 288° |
| 2026-05-07 09:34 | -12.58031 | 131.11365 | 10184 ft | 300 kts | 288° |
| 2026-05-07 09:35 | -12.57386 | 131.09383 | 10105 ft | 288 kts | 288° |
| 2026-05-07 09:35 | -12.56759 | 131.07472 | 10018 ft | 278 kts | 288° |
| 2026-05-07 09:35 | -12.56147 | 131.05617 | 9925 ft | 274 kts | 288° |
| 2026-05-07 09:35 | -12.55531 | 131.03759 | 9582 ft | 276 kts | 288° |
| 2026-05-07 09:36 | -12.54910 | 131.01895 | 9242 ft | 276 kts | 288° |
| 2026-05-07 09:36 | -12.54291 | 131.00033 | 8923 ft | 276 kts | 288° |
| 2026-05-07 09:36 | -12.53681 | 130.98201 | 8599 ft | 276 kts | 288° |
| 2026-05-07 09:36 | -12.53062 | 130.96339 | 8283 ft | 276 kts | 288° |
| 2026-05-07 09:37 | -12.52441 | 130.94472 | 7987 ft | 276 kts | 288° |
| 2026-05-07 09:37 | -12.51821 | 130.92608 | 7691 ft | 276 kts | 288° |
| 2026-05-07 09:37 | -12.51200 | 130.90747 | 7376 ft | 275 kts | 288° |
| 2026-05-07 09:37 | -12.50578 | 130.88886 | 7090 ft | 276 kts | 288° |
| 2026-05-07 09:38 | -12.49957 | 130.87022 | 6783 ft | 277 kts | 288° |
| 2026-05-07 09:38 | -12.49332 | 130.85152 | 6474 ft | 278 kts | 288° |
| 2026-05-07 09:38 | -12.48700 | 130.83268 | 6146 ft | 281 kts | 288° |
| 2026-05-07 09:38 | -12.48074 | 130.81394 | 5847 ft | 281 kts | 288° |
| 2026-05-07 09:39 | -12.47438 | 130.79503 | 5550 ft | 280 kts | 289° |
| 2026-05-07 09:39 | -12.46802 | 130.77625 | 5268 ft | 279 kts | 289° |
| 2026-05-07 09:39 | -12.46171 | 130.75750 | 4987 ft | 277 kts | 289° |
| 2026-05-07 09:39 | -12.45540 | 130.73884 | 4733 ft | 275 kts | 289° |
| 2026-05-07 09:40 | -12.44914 | 130.72032 | 4464 ft | 275 kts | 290° |
| 2026-05-07 09:40 | -12.44285 | 130.70179 | 4172 ft | 274 kts | 289° |
| 2026-05-07 09:40 | -12.43637 | 130.68348 | 3960 ft | 271 kts | 296° |
| 2026-05-07 09:40 | -12.42468 | 130.66934 | 3861 ft | 255 kts | 333° |
| 2026-05-07 09:41 | -12.40837 | 130.66429 | 3733 ft | 243 kts | 5° |
| 2026-05-07 09:41 | -12.39240 | 130.66816 | 3448 ft | 234 kts | 35° |
| 2026-05-07 09:41 | -12.37942 | 130.67777 | 3193 ft | 230 kts | 44° |
| 2026-05-07 09:41 | -12.36700 | 130.68806 | 3002 ft | 226 kts | 46° |
| 2026-05-07 09:42 | -12.35809 | 130.70021 | 2976 ft | 208 kts | 78° |
| 2026-05-07 09:42 | -12.35782 | 130.71423 | 2926 ft | 196 kts | 108° |
| 2026-05-07 09:42 | -12.36230 | 130.72734 | 2800 ft | 194 kts | 111° |
| 2026-05-07 09:42 | -12.36694 | 130.74040 | 2650 ft | 193 kts | 110° |
| 2026-05-07 09:43 | -12.36993 | 130.74895 | 2480 ft | 192 kts | 110° |
| 2026-05-07 09:43 | -12.37431 | 130.76181 | 2199 ft | 192 kts | 111° |
| 2026-05-07 09:43 | -12.37869 | 130.77478 | 1947 ft | 194 kts | 111° |
| 2026-05-07 09:43 | -12.38315 | 130.78768 | 1700 ft | 189 kts | 110° |
| 2026-05-07 09:44 | -12.38736 | 130.80017 | 1481 ft | 183 kts | 110° |
| 2026-05-07 09:44 | -12.39285 | 130.81647 | 1126 ft | 180 kts | 110° |
| 2026-05-07 09:44 | -12.39555 | 130.82466 | 961 ft | 178 kts | 112° |
| 2026-05-07 09:44 | -12.39958 | 130.83651 | 681 ft | 172 kts | 111° |
| 2026-05-07 09:45 | -12.40336 | 130.84759 | 487 ft | 162 kts | 110° |
| 2026-05-07 09:45 | -12.40692 | 130.85820 | 315 ft | 154 kts | 111° |
| 2026-05-07 09:45 | -12.41033 | 130.86819 | 121 ft | 141 kts | 111° |
| 2026-05-07 09:45 | -12.41318 | 130.87660 | 101 ft | 96 kts | 110° |
| 2026-05-07 09:46 | -12.41481 | 130.88133 | 96 ft | 61 kts | 110° |
| 2026-05-07 09:46 | -12.41569 | 130.88371 | 97 ft | 24 kts | 120° |
| 2026-05-07 09:46 | -12.41683 | 130.88424 | 99 ft | 15 kts | 188° |
| 2026-05-07 09:46 | -12.41758 | 130.88397 | 99 ft | 6 kts | 213° |
| 2026-05-07 09:47 | -12.41796 | 130.88358 | 101 ft | 18 kts | 237° |
| 2026-05-07 09:47 | -12.41789 | 130.88203 | 98 ft | 24 kts | 289° |
| 2026-05-07 09:47 | -12.41729 | 130.88031 | 101 ft | 27 kts | 290° |
| 2026-05-07 09:47 | -12.41660 | 130.87822 | 101 ft | 35 kts | 288° |
| 2026-05-07 09:48 | -12.41582 | 130.87594 | 100 ft | 27 kts | 289° |
| 2026-05-07 09:48 | -12.41465 | 130.87454 | 101 ft | 28 kts | 353° |
| 2026-05-07 09:48 | -12.41268 | 130.87505 | 102 ft | 30 kts | 19° |
| 2026-05-07 09:48 | -12.41087 | 130.87570 | 100 ft | 24 kts | 19° |
| 2026-05-07 09:49 | -12.40976 | 130.87636 | 100 ft | 15 kts | 56° |
| 2026-05-07 09:49 | -12.40965 | 130.87660 | 98 ft | 1 kts | 69° |
| 2026-05-07 09:49 | -12.40959 | 130.87683 | 99 ft | 5 kts | 80° |
| 2026-05-07 09:49 | -12.40961 | 130.87728 | 99 ft | 8 kts | 99° |
| 2026-05-07 09:50 | -12.40952 | 130.87760 | 102 ft | 3 kts | 41° |
| 2026-05-07 09:50 | -12.40936 | 130.87771 | 101 ft | 4 kts | 28° |
| 2026-05-07 09:50 | -12.40914 | 130.87781 | 99 ft | 0 kts | 21° |